Time;durP1;ratioP1;P1;durP2;ratioP2;P2;SDS_P1;SDS_P2;PMS_P1;PMS_P2;Temp;Humidity;BMP_temperature;BMP_pressure;BME280_temperature;BME280_humidity;BME280_pressure;Samples;Min_cycle;Max_cycle;Signal;HPM_P1;HPM_P2
2023/01/07 00:02:09;;;;;;;5.5;3.5;;;;;;;;;;;;;
2023/01/07 00:04:34;;;;;;;6;3.7;;;;;;;;;;;;;
2023/01/07 00:07:01;;;;;;;4.8;3.1;;;;;;;;;;;;;
2023/01/07 00:09:30;;;;;;;4.2;3.1;;;;;;;;;;;;;
2023/01/07 00:11:58;;;;;;;5.5;4.1;;;;;;;;;;;;;
2023/01/07 00:14:29;;;;;;;4.6;3.4;;;;;;;;;;;;;
2023/01/07 00:16:55;;;;;;;3.7;3;;;;;;;;;;;;;
2023/01/07 00:19:23;;;;;;;4.5;3.8;;;;;;;;;;;;;
2023/01/07 00:21:50;;;;;;;8.4;4.9;;;;;;;;;;;;;
2023/01/07 00:24:15;;;;;;;8.4;4.9;;;;;;;;;;;;;
2023/01/07 00:26:40;;;;;;;8.5;5.3;;;;;;;;;;;;;
2023/01/07 00:29:05;;;;;;;11.4;5.6;;;;;;;;;;;;;
2023/01/07 00:31:35;;;;;;;8.3;4.9;;;;;;;;;;;;;
2023/01/07 00:34:09;;;;;;;5.1;3.7;;;;;;;;;;;;;
2023/01/07 00:36:28;;;;;;;3.2;2.6;;;;;;;;;;;;;
2023/01/07 00:38:53;;;;;;;3.5;2.6;;;;;;;;;;;;;
2023/01/07 00:41:19;;;;;;;3.8;2.7;;;;;;;;;;;;;
2023/01/07 00:43:44;;;;;;;4;2.7;;;;;;;;;;;;;
2023/01/07 00:46:09;;;;;;;4.2;2.9;;;;;;;;;;;;;
2023/01/07 00:48:34;;;;;;;3.9;2.6;;;;;;;;;;;;;
2023/01/07 00:51:00;;;;;;;3.5;2.7;;;;;;;;;;;;;
2023/01/07 00:53:28;;;;;;;4.1;2.7;;;;;;;;;;;;;
2023/01/07 00:55:50;;;;;;;4;2.6;;;;;;;;;;;;;
2023/01/07 00:58:15;;;;;;;5;2.7;;;;;;;;;;;;;
2023/01/07 01:00:40;;;;;;;2.6;2.4;;;;;;;;;;;;;
2023/01/07 01:03:06;;;;;;;3.9;3;;;;;;;;;;;;;
2023/01/07 01:05:31;;;;;;;2.9;2.4;;;;;;;;;;;;;
2023/01/07 01:07:58;;;;;;;3.6;2.5;;;;;;;;;;;;;
2023/01/07 01:10:23;;;;;;;3;2.7;;;;;;;;;;;;;
2023/01/07 01:12:51;;;;;;;3.3;2.4;;;;;;;;;;;;;
2023/01/07 01:15:16;;;;;;;3.3;2.3;;;;;;;;;;;;;
2023/01/07 01:17:41;;;;;;;4.1;2.7;;;;;;;;;;;;;
2023/01/07 01:20:07;;;;;;;3.5;2.8;;;;;;;;;;;;;
2023/01/07 01:22:32;;;;;;;6.7;4.4;;;;;;;;;;;;;
2023/01/07 01:24:57;;;;;;;6.7;3.9;;;;;;;;;;;;;
2023/01/07 01:27:24;;;;;;;6.2;3.8;;;;;;;;;;;;;
2023/01/07 01:29:49;;;;;;;6.6;3.4;;;;;;;;;;;;;
2023/01/07 01:32:14;;;;;;;5;3.5;;;;;;;;;;;;;
2023/01/07 01:34:40;;;;;;;4.2;3.6;;;;;;;;;;;;;
2023/01/07 01:37:05;;;;;;;4.8;2.5;;;;;;;;;;;;;
2023/01/07 01:39:30;;;;;;;3.9;3.5;;;;;;;;;;;;;
2023/01/07 01:41:57;;;;;;;3.7;2.5;;;;;;;;;;;;;
2023/01/07 01:46:47;;;;;;;2.6;2.1;;;;;;;;;;;;;
2023/01/07 01:49:13;;;;;;;2.9;2.2;;;;;;;;;;;;;
2023/01/07 01:51:38;;;;;;;3.4;2.3;;;;;;;;;;;;;
2023/01/07 01:54:05;;;;;;;4;2.4;;;;;;;;;;;;;
2023/01/07 01:56:30;;;;;;;5.2;2.4;;;;;;;;;;;;;
2023/01/07 01:58:56;;;;;;;3.9;2.6;;;;;;;;;;;;;
2023/01/07 02:01:21;;;;;;;3.3;2.4;;;;;;;;;;;;;
2023/01/07 02:03:46;;;;;;;2.5;2.3;;;;;;;;;;;;;
2023/01/07 02:06:11;;;;;;;3.2;2.5;;;;;;;;;;;;;
2023/01/07 02:08:36;;;;;;;2.4;2.2;;;;;;;;;;;;;
2023/01/07 02:11:02;;;;;;;2.4;2;;;;;;;;;;;;;
2023/01/07 02:13:30;;;;;;;2.7;1.9;;;;;;;;;;;;;
2023/01/07 02:15:56;;;;;;;8.8;5.4;;;;;;;;;;;;;
2023/01/07 02:18:21;;;;;;;12.1;7.2;;;;;;;;;;;;;
2023/01/07 02:20:46;;;;;;;14.5;8.2;;;;;;;;;;;;;
2023/01/07 02:23:11;;;;;;;19.1;11.5;;;;;;;;;;;;;
2023/01/07 02:25:40;;;;;;;18.9;10.9;;;;;;;;;;;;;
2023/01/07 02:28:05;;;;;;;21.4;12.2;;;;;;;;;;;;;
2023/01/07 02:30:30;;;;;;;18.3;11.3;;;;;;;;;;;;;
2023/01/07 02:32:55;;;;;;;15.1;9.7;;;;;;;;;;;;;
2023/01/07 02:35:21;;;;;;;11.3;6.8;;;;;;;;;;;;;
2023/01/07 02:37:47;;;;;;;8.9;5.7;;;;;;;;;;;;;
2023/01/07 02:40:13;;;;;;;4.4;3.3;;;;;;;;;;;;;
2023/01/07 02:42:38;;;;;;;2.9;2.6;;;;;;;;;;;;;
2023/01/07 02:45:03;;;;;;;3.5;2.5;;;;;;;;;;;;;
2023/01/07 02:47:29;;;;;;;3.1;2.2;;;;;;;;;;;;;
2023/01/07 02:49:55;;;;;;;2.9;2;;;;;;;;;;;;;
2023/01/07 02:52:20;;;;;;;2.5;1.8;;;;;;;;;;;;;
2023/01/07 02:54:45;;;;;;;2.7;1.9;;;;;;;;;;;;;
2023/01/07 02:57:10;;;;;;;2.1;1.6;;;;;;;;;;;;;
2023/01/07 02:59:36;;;;;;;3.2;1.8;;;;;;;;;;;;;
2023/01/07 03:02:02;;;;;;;2.1;1.7;;;;;;;;;;;;;
2023/01/07 03:04:27;;;;;;;2;1.6;;;;;;;;;;;;;
2023/01/07 03:06:53;;;;;;;2.7;2;;;;;;;;;;;;;
2023/01/07 03:09:17;;;;;;;2.6;1.7;;;;;;;;;;;;;
2023/01/07 03:11:42;;;;;;;1.7;1.6;;;;;;;;;;;;;
2023/01/07 03:14:07;;;;;;;1.6;1.5;;;;;;;;;;;;;
2023/01/07 03:16:32;;;;;;;2;1.5;;;;;;;;;;;;;
2023/01/07 03:18:57;;;;;;;3.2;1.6;;;;;;;;;;;;;
2023/01/07 03:21:23;;;;;;;2.1;1.9;;;;;;;;;;;;;
2023/01/07 03:23:48;;;;;;;2.4;1.6;;;;;;;;;;;;;
2023/01/07 03:26:13;;;;;;;1.6;1.5;;;;;;;;;;;;;
2023/01/07 03:28:40;;;;;;;2.3;1.5;;;;;;;;;;;;;
2023/01/07 03:31:03;;;;;;;2.2;1.9;;;;;;;;;;;;;
2023/01/07 03:33:30;;;;;;;1.8;1.6;;;;;;;;;;;;;
2023/01/07 03:35:55;;;;;;;2.7;1.8;;;;;;;;;;;;;
2023/01/07 03:38:22;;;;;;;1.8;1.6;;;;;;;;;;;;;
2023/01/07 03:40:47;;;;;;;1.7;1.4;;;;;;;;;;;;;
2023/01/07 03:43:14;;;;;;;2;1.5;;;;;;;;;;;;;
2023/01/07 03:45:39;;;;;;;1.6;1.4;;;;;;;;;;;;;
2023/01/07 03:48:06;;;;;;;1.9;1.5;;;;;;;;;;;;;
2023/01/07 03:50:31;;;;;;;2.1;1.5;;;;;;;;;;;;;
2023/01/07 03:52:57;;;;;;;2;1.8;;;;;;;;;;;;;
2023/01/07 03:55:22;;;;;;;1.5;1.4;;;;;;;;;;;;;
2023/01/07 03:57:47;;;;;;;1.7;1.2;;;;;;;;;;;;;
2023/01/07 04:00:13;;;;;;;2.2;1.6;;;;;;;;;;;;;
2023/01/07 04:02:52;;;;;;;2;1.5;;;;;;;1.05;92.45313;941.1608;;;;
2023/01/07 04:05:22;;;;;;;1.6;1.4;;;;;;;0.98;92.72754;941.0999;;;;
2023/01/07 04:07:47;;;;;;;1.6;1.4;;;;;;;0.94;92.9209;941.0139;;;;
2023/01/07 04:10:21;;;;;;;1.5;1.3;;;;;;;0.93;93.15137;941.025;;;;
2023/01/07 04:12:46;;;;;;;1.3;1.2;;;;;;;0.89;93.23242;941.0302;;;;
2023/01/07 04:15:14;;;;;;;2.1;1.7;;;;;;;0.83;93.27441;940.9331;;;;
2023/01/07 04:17:45;;;;;;;7;4.6;;;;;;;0.68;94.22461;940.88;;;;
2023/01/07 04:20:11;;;;;;;5.5;3.3;;;;;;;0.69;94.56152;940.8649;;;;
2023/01/07 04:22:38;;;;;;;2.5;2;;;;;;;0.75;94.76563;940.8098;;;;
2023/01/07 04:25:03;;;;;;;2.2;1.6;;;;;;;0.8;94.59668;940.8554;;;;
2023/01/07 04:27:34;;;;;;;2.7;2.4;;;;;;;0.89;94.1709;940.7606;;;;
2023/01/07 04:30:00;;;;;;;2.1;1.9;;;;;;;0.93;93.81055;940.6951;;;;
2023/01/07 04:32:25;;;;;;;2.2;1.5;;;;;;;0.93;93.54199;940.6371;;;;
2023/01/07 04:34:53;;;;;;;1.5;1.4;;;;;;;0.93;93.29688;940.6196;;;;
2023/01/07 04:37:18;;;;;;;2.8;2;;;;;;;0.91;93.11426;940.5759;;;;
2023/01/07 04:39:46;;;;;;;2.6;1.9;;;;;;;0.84;93.48926;940.5245;;;;
2023/01/07 04:42:11;;;;;;;1.4;1.3;;;;;;;0.81;93.78418;940.5342;;;;
2023/01/07 04:44:41;;;;;;;2.3;1.7;;;;;;;0.78;93.65527;940.4666;;;;
2023/01/07 04:47:06;;;;;;;2.6;1.8;;;;;;;0.76;93.49512;940.4838;;;;
2023/01/07 04:49:31;;;;;;;1.8;1.5;;;;;;;0.73;93.56738;940.476;;;;
2023/01/07 04:51:56;;;;;;;2;1.6;;;;;;;0.66;93.88379;940.3406;;;;
2023/01/07 04:54:21;;;;;;;3.1;1.9;;;;;;;0.58;94.47949;940.4271;;;;
2023/01/07 04:56:50;;;;;;;1.8;1.6;;;;;;;0.58;94.61523;940.3992;;;;
2023/01/07 04:59:15;;;;;;;2;1.3;;;;;;;0.6;94.90918;940.3184;;;;
2023/01/07 05:01:45;;;;;;;2;1.4;;;;;;;0.69;94.53906;940.2245;;;;
2023/01/07 05:04:13;;;;;;;2.3;1.1;;;;;;;0.72;94.72559;940.288;;;;
2023/01/07 05:06:38;;;;;;;1.5;1.2;;;;;;;0.79;94.46094;940.2342;;;;
2023/01/07 05:09:06;;;;;;;1.6;1.3;;;;;;;0.77;94.36719;940.2025;;;;
2023/01/07 05:11:31;;;;;;;1.7;1.3;;;;;;;0.7;94.45215;940.1865;;;;
2023/01/07 05:13:58;;;;;;;1.9;1.5;;;;;;;0.68;94.75781;940.1487;;;;
2023/01/07 05:16:23;;;;;;;2.3;1.8;;;;;;;0.7;94.70898;940.1247;;;;
2023/01/07 05:18:50;;;;;;;2.8;2.4;;;;;;;0.71;94.53027;940.0522;;;;
2023/01/07 05:21:15;;;;;;;2.1;1.8;;;;;;;0.72;94.80176;940.0364;;;;
2023/01/07 05:23:42;;;;;;;1.7;1.6;;;;;;;0.72;94.63672;939.9692;;;;
2023/01/07 05:26:07;;;;;;;2.3;1.7;;;;;;;0.77;94.55762;939.9933;;;;
2023/01/07 05:28:39;;;;;;;1.4;1.3;;;;;;;0.83;94.13574;939.9772;;;;
2023/01/07 05:31:08;;;;;;;1.6;1.5;;;;;;;0.78;94.28027;939.913;;;;
2023/01/07 05:33:33;;;;;;;2;1.4;;;;;;;0.7;94.89844;939.8495;;;;
2023/01/07 05:36:02;;;;;;;1.6;1.5;;;;;;;0.66;95.43652;939.8713;;;;
2023/01/07 05:38:27;;;;;;;1.6;1.5;;;;;;;0.69;95.36719;939.8738;;;;
2023/01/07 05:40:58;;;;;;;2.3;1.6;;;;;;;0.66;95.99512;939.8675;;;;
2023/01/07 05:43:30;;;;;;;3.1;2;;;;;;;0.64;96.15625;939.7612;;;;
2023/01/07 05:45:56;;;;;;;3.4;2.1;;;;;;;0.66;96.18262;939.8156;;;;
2023/01/07 05:48:20;;;;;;;3.7;2.9;;;;;;;0.67;96.03027;939.8586;;;;
2023/01/07 05:50:49;;;;;;;4.1;3.1;;;;;;;0.66;96.72852;939.7983;;;;
2023/01/07 05:56:57;;;;;;;3.8;2.3;;;;;;;0.64;96.06641;939.6877;;;;
2023/01/07 05:59:24;;;;;;;2.6;1.7;;;;;;;0.53;96.1084;939.7064;;;;
2023/01/07 06:01:50;;;;;;;5;3.4;;;;;;;0.46;96.53809;939.6114;;;;
2023/01/07 06:04:20;;;;;;;8.7;4.6;;;;;;;0.5;96.32617;939.5679;;;;
2023/01/07 06:06:45;;;;;;;7.3;4.2;;;;;;;0.55;96.15723;939.5341;;;;
2023/01/07 06:09:11;;;;;;;5.3;3.7;;;;;;;0.64;95.44434;939.5673;;;;
2023/01/07 06:11:36;;;;;;;3.5;2.7;;;;;;;0.65;95.06445;939.5995;;;;
2023/01/07 06:14:05;;;;;;;2.6;2;;;;;;;0.6;94.84277;939.5991;;;;
2023/01/07 06:16:30;;;;;;;3;1.9;;;;;;;0.53;94.99121;939.5895;;;;
2023/01/07 06:18:57;;;;;;;2.8;1.9;;;;;;;0.49;94.96094;939.5577;;;;
2023/01/07 06:21:23;;;;;;;2.4;1.8;;;;;;;0.44;95.29883;939.4797;;;;
2023/01/07 06:23:49;;;;;;;4;2;;;;;;;0.44;95.50879;939.5641;;;;
2023/01/07 06:26:14;;;;;;;2.3;1.7;;;;;;;0.44;95.21875;939.5421;;;;
2023/01/07 06:28:40;;;;;;;2.9;2.2;;;;;;;0.44;94.97559;939.5095;;;;
2023/01/07 06:31:05;;;;;;;2;1.8;;;;;;;0.42;95.13672;939.4675;;;;
2023/01/07 06:33:32;;;;;;;1.5;1.4;;;;;;;0.47;95.01465;939.4302;;;;
2023/01/07 06:35:57;;;;;;;2.2;1.5;;;;;;;0.52;94.7793;939.4402;;;;
2023/01/07 06:38:26;;;;;;;1.6;1.5;;;;;;;0.55;94.59766;939.4773;;;;
2023/01/07 06:40:55;;;;;;;2.3;1.8;;;;;;;0.56;94.46387;939.3803;;;;
2023/01/07 06:43:19;;;;;;;2.7;2.4;;;;;;;0.57;94.35645;939.3511;;;;
2023/01/07 06:45:46;;;;;;;2.6;2.2;;;;;;;0.55;94.2168;939.2915;;;;
2023/01/07 06:48:11;;;;;;;2.4;1.9;;;;;;;0.63;95.02734;939.3027;;;;
2023/01/07 06:50:42;;;;;;;2.7;2;;;;;;;0.67;94.55566;939.2714;;;;
2023/01/07 06:53:10;;;;;;;1.9;1.8;;;;;;;0.68;94.41406;939.2674;;;;
2023/01/07 06:55:35;;;;;;;1.9;1.7;;;;;;;0.81;93.8623;939.1783;;;;
2023/01/07 06:58:04;;;;;;;1.6;1.5;;;;;;;0.8;93.49219;939.2478;;;;
2023/01/07 07:03:10;;;;;;;2.5;1.9;;;;;;;0.81;93.81738;939.153;;;;
2023/01/07 07:05:36;;;;;;;2.4;1.9;;;;;;;0.78;93.71094;939.1647;;;;
2023/01/07 07:08:02;;;;;;;3.2;1.9;;;;;;;0.77;93.66406;939.1736;;;;
2023/01/07 07:10:30;;;;;;;2.5;1.6;;;;;;;0.79;93.5791;939.105;;;;
2023/01/07 07:12:55;;;;;;;1.9;1.5;;;;;;;0.85;93.16895;939.1238;;;;
2023/01/07 07:15:27;;;;;;;1.7;1.3;;;;;;;0.9;92.98926;939.053;;;;
2023/01/07 07:17:55;;;;;;;2.6;2.4;;;;;;;0.91;92.5918;938.9855;;;;
2023/01/07 07:20:20;;;;;;;3.6;2.9;;;;;;;0.81;92.82422;938.9713;;;;
2023/01/07 07:22:47;;;;;;;4.7;2.8;;;;;;;0.79;93.13086;938.9659;;;;
2023/01/07 07:25:12;;;;;;;10.1;5.9;;;;;;;0.72;93.43164;939.017;;;;
2023/01/07 07:27:41;;;;;;;7;4.4;;;;;;;0.9;93.51367;939.0231;;;;
2023/01/07 07:30:06;;;;;;;5.1;3.6;;;;;;;1.02;92.84961;939.0309;;;;
2023/01/07 07:32:33;;;;;;;3.2;2.5;;;;;;;1.1;92.1416;938.9355;;;;
2023/01/07 07:34:58;;;;;;;4.7;3;;;;;;;1.06;91.84082;938.9061;;;;
2023/01/07 07:37:24;;;;;;;4.2;3.5;;;;;;;1.02;91.77539;938.9945;;;;
2023/01/07 07:39:49;;;;;;;4.3;2.8;;;;;;;0.94;91.69336;938.968;;;;
2023/01/07 07:42:20;;;;;;;4.6;3;;;;;;;0.83;92.06055;938.9238;;;;
2023/01/07 07:44:45;;;;;;;3.1;2.6;;;;;;;0.89;91.97168;938.9264;;;;
2023/01/07 07:47:12;;;;;;;2.4;2.2;;;;;;;0.93;91.46582;938.7841;;;;
2023/01/07 07:49:37;;;;;;;3.5;2.6;;;;;;;1;91.0791;938.8764;;;;
2023/01/07 07:52:07;;;;;;;2.9;2.1;;;;;;;1.05;90.64453;938.8799;;;;
2023/01/07 07:54:31;;;;;;;3.1;2.6;;;;;;;1.04;90.54199;938.8577;;;;
2023/01/07 07:56:59;;;;;;;3.5;2.5;;;;;;;1.12;90.3584;938.8652;;;;
2023/01/07 07:59:24;;;;;;;3.1;2.8;;;;;;;1.14;89.77051;938.8975;;;;
2023/01/07 08:01:55;;;;;;;2.5;2.2;;;;;;;1.15;89.625;938.7949;;;;
2023/01/07 08:04:23;;;;;;;3.3;2.4;;;;;;;1.13;89.5;938.7841;;;;
2023/01/07 08:06:48;;;;;;;1.7;1.5;;;;;;;1.19;88.96387;938.7311;;;;
2023/01/07 08:09:13;;;;;;;1.4;1.2;;;;;;;1.31;88.10645;938.6761;;;;
2023/01/07 08:11:41;;;;;;;1.8;1.4;;;;;;;1.52;87.54785;938.6348;;;;
2023/01/07 08:14:06;;;;;;;2.9;1.7;;;;;;;1.96;87.00098;938.5812;;;;
2023/01/07 08:16:35;;;;;;;2;1.3;;;;;;;2.31;84.91016;938.5679;;;;
2023/01/07 08:19:05;;;;;;;2.5;2;;;;;;;2.21;83.94922;938.5557;;;;
2023/01/07 08:21:30;;;;;;;2.7;2.1;;;;;;;2.59;82.88086;938.4769;;;;
2023/01/07 08:23:56;;;;;;;4.5;2.7;;;;;;;3.08;80.61035;938.4772;;;;
2023/01/07 08:26:22;;;;;;;5;3.2;;;;;;;3.61;79.31738;938.4153;;;;
2023/01/07 08:28:50;;;;;;;3.3;2.7;;;;;;;4.01;75.72656;938.4796;;;;
2023/01/07 08:31:15;;;;;;;3.5;3.2;;;;;;;3.78;76.35938;938.4089;;;;
2023/01/07 08:33:42;;;;;;;2.4;2.2;;;;;;;3.78;76.42676;938.3192;;;;
2023/01/07 08:36:07;;;;;;;3.1;2.1;;;;;;;4.02;75.92871;938.3025;;;;
2023/01/07 08:38:35;;;;;;;3.2;1.9;;;;;;;4.51;74.21582;938.2411;;;;
2023/01/07 08:41:00;;;;;;;2;1.8;;;;;;;4.28;74.51465;938.2541;;;;
2023/01/07 08:43:30;;;;;;;2.6;2.4;;;;;;;4.33;74.43066;938.2759;;;;
2023/01/07 08:45:55;;;;;;;3.5;2.3;;;;;;;4.57;73.7207;938.2297;;;;
2023/01/07 08:48:22;;;;;;;5.1;3.2;;;;;;;4.72;73.63477;938.2134;;;;
2023/01/07 08:50:47;;;;;;;3.6;2.7;;;;;;;4.47;73.27441;938.1387;;;;
2023/01/07 08:53:17;;;;;;;4.1;2.7;;;;;;;3.95;75.18848;938.1307;;;;
2023/01/07 08:55:46;;;;;;;2.5;2.1;;;;;;;3.45;77.53516;938.1267;;;;
2023/01/07 08:58:11;;;;;;;3.6;2.9;;;;;;;3.16;79.05273;938.1472;;;;
2023/01/07 09:00:37;;;;;;;5.9;4.6;;;;;;;3.01;80.80859;938.1519;;;;
2023/01/07 09:03:03;;;;;;;8.6;3.8;;;;;;;3.12;81.02148;938.1348;;;;
2023/01/07 09:05:31;;;;;;;4.8;3.5;;;;;;;3.18;80.99805;938.055;;;;
2023/01/07 09:07:56;;;;;;;4.6;3.6;;;;;;;3.22;80.58008;938.0712;;;;
2023/01/07 09:10:24;;;;;;;6.2;3.3;;;;;;;3.29;80.25684;938.0697;;;;
2023/01/07 09:12:50;;;;;;;5.2;3.3;;;;;;;3.35;79.96387;937.9325;;;;
2023/01/07 09:15:19;;;;;;;6.3;3.4;;;;;;;3.4;79.88477;937.9326;;;;
2023/01/07 09:17:49;;;;;;;9.1;4.7;;;;;;;3.51;79.19922;937.8812;;;;
2023/01/07 09:20:19;;;;;;;7.5;4.7;;;;;;;3.66;79.37012;937.9471;;;;
2023/01/07 09:22:44;;;;;;;6;4.2;;;;;;;3.85;78.48535;937.8995;;;;
2023/01/07 09:25:13;;;;;;;6.9;3.8;;;;;;;4.01;77.45703;937.8301;;;;
2023/01/07 09:27:44;;;;;;;5.2;3.6;;;;;;;4.09;75.54785;937.796;;;;
2023/01/07 09:30:08;;;;;;;6.5;3.9;;;;;;;4.2;74.70117;937.7883;;;;
2023/01/07 09:32:33;;;;;;;7.3;4.3;;;;;;;4.3;75.4834;937.7642;;;;
2023/01/07 09:34:59;;;;;;;10;4.9;;;;;;;4.35;74.67383;937.7747;;;;
2023/01/07 09:37:24;;;;;;;4.8;3.5;;;;;;;4.3;73.67188;937.7336;;;;
2023/01/07 09:39:51;;;;;;;4.8;3.3;;;;;;;4.33;74.5;937.7039;;;;
2023/01/07 09:42:16;;;;;;;5.8;3.5;;;;;;;4.46;74.20703;937.6364;;;;
2023/01/07 09:44:44;;;;;;;4.9;3;;;;;;;4.49;74.43848;937.6429;;;;
2023/01/07 09:47:09;;;;;;;5.1;2.8;;;;;;;4.51;73.76563;937.6088;;;;
2023/01/07 09:49:34;;;;;;;5.4;2.7;;;;;;;4.61;73.5127;937.5325;;;;
2023/01/07 09:52:01;;;;;;;6.3;3.4;;;;;;;4.77;73.83203;937.4316;;;;
2023/01/07 09:54:26;;;;;;;6.9;4.4;;;;;;;4.83;72.41211;937.5204;;;;
2023/01/07 09:56:55;;;;;;;5.9;3.7;;;;;;;4.76;71.82715;937.4622;;;;
2023/01/07 09:59:20;;;;;;;10.5;5.3;;;;;;;4.81;72.85938;937.4584;;;;
2023/01/07 10:01:46;;;;;;;8.5;5.4;;;;;;;4.95;72.92773;937.4063;;;;
2023/01/07 10:04:11;;;;;;;6.2;3.8;;;;;;;5.11;69.68652;937.39;;;;
2023/01/07 10:06:38;;;;;;;8.5;4.7;;;;;;;5.26;71.49316;937.2278;;;;
2023/01/07 10:09:03;;;;;;;5.2;3.7;;;;;;;5.36;71.49902;937.2883;;;;
2023/01/07 10:11:30;;;;;;;7.9;4.1;;;;;;;5.41;72.24121;937.1809;;;;
2023/01/07 10:13:55;;;;;;;7.6;4;;;;;;;5.5;71.22754;937.1264;;;;
2023/01/07 10:16:23;;;;;;;3.1;2.3;;;;;;;5.66;66.86328;937.059;;;;
2023/01/07 10:18:48;;;;;;;6.1;3.3;;;;;;;5.9;68.29102;936.9883;;;;
2023/01/07 10:21:13;;;;;;;6;3.1;;;;;;;6.17;65.79102;936.9357;;;;
2023/01/07 10:23:38;;;;;;;4.5;3.2;;;;;;;6.4;60.83887;936.8567;;;;
2023/01/07 10:26:03;;;;;;;7.1;3.7;;;;;;;6.59;61.08105;936.7917;;;;
2023/01/07 10:28:28;;;;;;;5.1;2.7;;;;;;;6.8;60.19336;936.7029;;;;
2023/01/07 10:30:54;;;;;;;6;3.1;;;;;;;6.9;61.2373;936.6785;;;;
2023/01/07 10:33:19;;;;;;;7.3;4.7;;;;;;;7.09;60.6543;936.7285;;;;
2023/01/07 10:35:44;;;;;;;7.9;3.8;;;;;;;7.08;60.77734;936.7101;;;;
2023/01/07 10:38:10;;;;;;;4.9;2.5;;;;;;;7.19;58.02832;936.6458;;;;
2023/01/07 10:40:35;;;;;;;6.3;3.2;;;;;;;7.28;58.66406;936.5251;;;;
2023/01/07 10:43:00;;;;;;;8.6;3.4;;;;;;;7.41;58.91797;936.5368;;;;
2023/01/07 10:45:30;;;;;;;6.7;3;;;;;;;7.59;57.91113;936.492;;;;
2023/01/07 10:47:55;;;;;;;3.8;2.5;;;;;;;7.66;56.40137;936.4023;;;;
2023/01/07 10:50:20;;;;;;;4.8;2.5;;;;;;;7.8;56.48828;936.4175;;;;
2023/01/07 10:52:45;;;;;;;3.4;2.3;;;;;;;8;57.92188;936.3337;;;;
2023/01/07 10:55:10;;;;;;;5.7;2.5;;;;;;;8.2;56.34766;936.2673;;;;
2023/01/07 10:57:37;;;;;;;2.3;1.3;;;;;;;8.29;52.65723;936.2793;;;;
2023/01/07 11:00:03;;;;;;;1.1;1;;;;;;;8.35;52.04004;936.2346;;;;
2023/01/07 11:02:27;;;;;;;2.6;1.3;;;;;;;8.46;53.39453;936.2046;;;;
2023/01/07 11:04:54;;;;;;;2.6;1.4;;;;;;;8.52;52.65137;936.2396;;;;
2023/01/07 11:07:19;;;;;;;48.5;12.7;;;;;;;8.65;53.07617;936.0828;;;;
2023/01/07 11:09:44;;;;;;;89.6;25.5;;;;;;;8.86;61.84863;936.1771;;;;
2023/01/07 11:12:09;;;;;;;58.4;16.7;;;;;;;9.04;62.04395;936.1016;;;;
2023/01/07 11:14:34;;;;;;;2.4;1.2;;;;;;;9.09;54.33691;936.1062;;;;
2023/01/07 11:17:04;;;;;;;2.4;2;;;;;;;9.11;55.08984;936.1049;;;;
2023/01/07 11:19:29;;;;;;;6.7;2.2;;;;;;;9.11;54.58887;936.1136;;;;
2023/01/07 11:21:54;;;;;;;3.4;2.2;;;;;;;9.14;54.66113;936.1107;;;;
2023/01/07 11:24:19;;;;;;;3.9;1.9;;;;;;;9.15;58.94238;936.0917;;;;
2023/01/07 11:26:49;;;;;;;3.2;2.2;;;;;;;9.09;58.94531;936.0419;;;;
2023/01/07 11:29:15;;;;;;;4.7;2.2;;;;;;;9.06;61.01074;936.0106;;;;
2023/01/07 11:31:40;;;;;;;1.9;1.7;;;;;;;9.07;60.74023;935.9328;;;;
2023/01/07 11:34:05;;;;;;;2.6;1.5;;;;;;;9.12;59.02832;935.9151;;;;
2023/01/07 11:36:33;;;;;;;3.7;1.6;;;;;;;9.06;59.41797;935.8787;;;;
2023/01/07 11:38:58;;;;;;;2.5;1.8;;;;;;;9.03;60.24609;935.8506;;;;
2023/01/07 11:41:25;;;;;;;2.1;1.6;;;;;;;8.99;59.81934;935.838;;;;
2023/01/07 11:43:51;;;;;;;3.3;2.2;;;;;;;8.99;60.0918;935.7966;;;;
2023/01/07 11:46:16;;;;;;;2.1;1.5;;;;;;;9.06;59.83887;935.7635;;;;
2023/01/07 11:48:44;;;;;;;2.4;1.6;;;;;;;9.05;58.25781;935.75;;;;
2023/01/07 11:51:09;;;;;;;1.8;1.4;;;;;;;8.88;59.81543;935.7104;;;;
2023/01/07 11:53:32;;;;;;;2.6;1.7;;;;;;;8.96;59.58789;935.7567;;;;
2023/01/07 11:55:59;;;;;;;3.7;1.7;;;;;;;8.9;58.85059;935.6964;;;;
2023/01/07 11:58:24;;;;;;;2.3;1.8;;;;;;;8.97;59.69141;935.6884;;;;
2023/01/07 12:00:53;;;;;;;2.3;1.6;;;;;;;8.93;59.16211;935.6086;;;;
2023/01/07 12:03:21;;;;;;;2.3;1.7;;;;;;;8.83;59.9668;935.5757;;;;
2023/01/07 12:05:50;;;;;;;2.7;2;;;;;;;8.81;60.2832;935.5739;;;;
2023/01/07 12:08:15;;;;;;;2.7;2.1;;;;;;;8.85;59.44727;935.5799;;;;
2023/01/07 12:10:40;;;;;;;2.4;1.8;;;;;;;8.88;60.14551;935.5446;;;;
2023/01/07 12:13:09;;;;;;;4.3;1.9;;;;;;;8.83;59.80762;935.4908;;;;
2023/01/07 12:15:38;;;;;;;2.5;2;;;;;;;8.92;60.62793;935.467;;;;
2023/01/07 12:18:07;;;;;;;3.2;2.3;;;;;;;9.03;61.95215;935.3995;;;;
2023/01/07 12:20:35;;;;;;;3;2.2;;;;;;;9.16;60.53711;935.3293;;;;
2023/01/07 12:23:00;;;;;;;4.6;2.3;;;;;;;9.02;60.74609;935.2977;;;;
2023/01/07 12:25:28;;;;;;;4.2;2.5;;;;;;;8.97;61.70508;935.2421;;;;
2023/01/07 12:27:57;;;;;;;3.6;2.3;;;;;;;9.08;61.25391;935.1364;;;;
2023/01/07 12:30:27;;;;;;;4.6;2.1;;;;;;;9.08;60.82129;935.1697;;;;
2023/01/07 12:32:58;;;;;;;3.7;2.2;;;;;;;9.04;59.94043;935.1288;;;;
2023/01/07 12:35:26;;;;;;;4.6;2.3;;;;;;;9.04;59.99609;935.1669;;;;
2023/01/07 12:37:52;;;;;;;4.9;2.4;;;;;;;9.19;61.34863;935.1278;;;;
2023/01/07 12:40:17;;;;;;;3;2.1;;;;;;;9.27;58.9248;935.1424;;;;
2023/01/07 12:42:44;;;;;;;3.7;2.2;;;;;;;9.44;59.4375;935.1577;;;;
2023/01/07 12:45:13;;;;;;;2.1;1.6;;;;;;;9.56;57.19922;935.1969;;;;
2023/01/07 12:47:38;;;;;;;3.8;2.4;;;;;;;9.8;58.2207;935.2012;;;;
2023/01/07 12:50:03;;;;;;;3.3;2;;;;;;;10.03;56.83887;935.2559;;;;
2023/01/07 12:52:29;;;;;;;3.9;2.6;;;;;;;10.18;57.30371;935.182;;;;
2023/01/07 12:54:54;;;;;;;3.1;2.3;;;;;;;10.24;59.74121;935.2045;;;;
2023/01/07 12:57:19;;;;;;;4;2.3;;;;;;;10.27;59.42676;935.2269;;;;
2023/01/07 12:59:44;;;;;;;5.1;2.3;;;;;;;10.34;59.61816;935.2297;;;;
2023/01/07 13:02:09;;;;;;;3.4;2.7;;;;;;;10.38;58.02637;935.2244;;;;
2023/01/07 13:04:38;;;;;;;4.7;3.1;;;;;;;10.4;57.85742;935.2411;;;;
2023/01/07 13:07:04;;;;;;;4.5;2.8;;;;;;;10.39;58.64355;935.21;;;;
2023/01/07 13:09:33;;;;;;;4.4;2.7;;;;;;;10.34;59.31055;935.1262;;;;
2023/01/07 13:14:23;;;;;;;3.4;2.3;;;;;;;10.31;59.20313;935.1269;;;;
2023/01/07 13:16:54;;;;;;;3;2.3;;;;;;;10.4;58.07422;935.105;;;;
2023/01/07 13:19:19;;;;;;;3.6;2.5;;;;;;;10.43;58.13574;935.1111;;;;
2023/01/07 13:21:48;;;;;;;2.8;2.3;;;;;;;10.46;59.34863;935.0618;;;;
2023/01/07 13:24:13;;;;;;;4.4;3.1;;;;;;;10.46;59.23535;934.9647;;;;
2023/01/07 13:26:39;;;;;;;5.3;3.1;;;;;;;10.53;59.18848;935.0208;;;;
2023/01/07 13:29:04;;;;;;;3.3;2.6;;;;;;;10.57;58.22266;935.0583;;;;
2023/01/07 13:31:30;;;;;;;5.2;2.8;;;;;;;10.7;59.75977;935.0217;;;;
2023/01/07 13:33:57;;;;;;;5.5;3.2;;;;;;;10.82;59.50098;935.0583;;;;
2023/01/07 13:36:22;;;;;;;6.3;3.5;;;;;;;11.67;57.87793;935.1156;;;;
2023/01/07 13:38:47;;;;;;;3.6;2.7;;;;;;;13.72;52.76953;935.0472;;;;
2023/01/07 13:41:17;;;;;;;4.1;2.6;;;;;;;16.35;45.0459;935.0361;;;;
2023/01/07 13:43:43;;;;;;;3.6;2.8;;;;;;;18.87;40.26563;934.9641;;;;
2023/01/07 13:46:10;;;;;;;3.6;2.5;;;;;;;20.75;36.14844;934.9364;;;;
2023/01/07 13:48:37;;;;;;;3;2.2;;;;;;;21.06;34.74707;934.9081;;;;
2023/01/07 13:51:02;;;;;;;4.1;2.7;;;;;;;20.84;34.6123;934.8689;;;;
2023/01/07 13:53:27;;;;;;;4.9;2.7;;;;;;;20.24;35.57031;934.8925;;;;
2023/01/07 13:55:56;;;;;;;3.7;2.3;;;;;;;20.9;34.19629;934.9114;;;;
2023/01/07 13:58:38;;;;;;;3.5;2.2;;;;;;;20.62;34.40918;934.9506;;;;
2023/01/07 14:01:03;;;;;;;4;3;;;;;;;20.57;34.43945;934.9764;;;;
2023/01/07 14:03:28;;;;;;;3.8;2.9;;;;;;;20.34;34.70215;935.0303;;;;
2023/01/07 14:05:53;;;;;;;4.8;2.9;;;;;;;20.57;33.87988;935.0831;;;;
2023/01/07 14:08:19;;;;;;;4.4;3.4;;;;;;;18.46;37.21777;935.02;;;;
2023/01/07 14:10:48;;;;;;;7.8;4.3;;;;;;;16.4;41.38184;934.9855;;;;
2023/01/07 14:13:13;;;;;;;5.6;4.2;;;;;;;14.83;45.00488;935.0502;;;;
2023/01/07 14:15:38;;;;;;;6.1;3.8;;;;;;;13.78;47.83105;935.1091;;;;
2023/01/07 14:18:07;;;;;;;5.1;3.8;;;;;;;13.03;50.26367;935.1417;;;;
2023/01/07 14:20:35;;;;;;;9.9;5.6;;;;;;;11.81;54.2793;935.2422;;;;
2023/01/07 14:23:02;;;;;;;7.6;5.6;;;;;;;11.42;56.09473;935.1894;;;;
2023/01/07 14:25:28;;;;;;;8.6;5.4;;;;;;;10.96;57.70508;935.2036;;;;
2023/01/07 14:27:53;;;;;;;9.2;5.9;;;;;;;10.68;59.03809;935.2477;;;;
2023/01/07 14:30:21;;;;;;;7.4;4.8;;;;;;;10.41;60.0498;935.2534;;;;
2023/01/07 14:32:47;;;;;;;8.2;5.5;;;;;;;10.1;61.41016;935.2245;;;;
2023/01/07 14:35:14;;;;;;;7.2;5;;;;;;;9.87;62.34766;935.2068;;;;
2023/01/07 14:37:48;;;;;;;7;4.8;;;;;;;9.69;62.75391;935.2084;;;;
2023/01/07 14:40:14;;;;;;;8;4.6;;;;;;;9.65;63.18066;935.2264;;;;
2023/01/07 14:42:43;;;;;;;9.8;5.7;;;;;;;9.42;63.80859;935.2569;;;;
2023/01/07 14:45:17;;;;;;;8.9;5.4;;;;;;;9.38;63.90527;935.187;;;;
2023/01/07 14:47:42;;;;;;;8.6;4.5;;;;;;;9.27;64.37695;935.1727;;;;
2023/01/07 14:50:15;;;;;;;8.7;4.5;;;;;;;9.25;64.12402;935.1803;;;;
2023/01/07 14:52:43;;;;;;;12.1;4.6;;;;;;;9.13;64.44824;935.152;;;;
2023/01/07 14:55:09;;;;;;;7;4.2;;;;;;;9.12;64.44531;935.1319;;;;
2023/01/07 14:57:38;;;;;;;13.5;6.1;;;;;;;8.99;63.99414;935.0851;;;;
2023/01/07 15:00:11;;;;;;;13.3;6.2;;;;;;;8.65;63.9209;935.2336;;;;
2023/01/07 15:02:38;;;;;;;10.2;6.2;;;;;;;8.35;64.46875;935.281;;;;
2023/01/07 15:05:09;;;;;;;11.8;5.6;;;;;;;8.22;64.82324;935.2941;;;;
2023/01/07 15:07:35;;;;;;;10.1;5.7;;;;;;;8.1;65.48633;935.2747;;;;
2023/01/07 15:17:29;;;;;;;13.1;6.5;;;;;;;7.7;66.94434;935.4347;;;;
2023/01/07 15:19:55;;;;;;;12;5.7;;;;;;;7.57;67.61523;935.411;;;;
2023/01/07 15:22:22;;;;;;;12.9;7.2;;;;;;;7.52;67.7666;935.4395;;;;
2023/01/07 15:24:50;;;;;;;10.4;6.7;;;;;;;7.5;67.58203;935.4369;;;;
2023/01/07 15:27:15;;;;;;;13.5;8.4;;;;;;;7.48;67.36328;935.366;;;;
2023/01/07 15:29:40;;;;;;;19.3;11.1;;;;;;;7.4;67.4873;935.4112;;;;
2023/01/07 15:32:11;;;;;;;19.7;12.4;;;;;;;7.18;68.20117;935.4286;;;;
2023/01/07 15:34:36;;;;;;;37.6;21;;;;;;;6.94;68.89844;935.3766;;;;
2023/01/07 15:37:04;;;;;;;35.3;20.5;;;;;;;6.75;69.3418;935.4486;;;;
2023/01/07 15:39:29;;;;;;;28.5;17;;;;;;;6.66;69.47559;935.4659;;;;
2023/01/07 15:41:57;;;;;;;26.2;15.2;;;;;;;6.64;69.32422;935.4425;;;;
2023/01/07 15:44:22;;;;;;;26.4;16;;;;;;;6.63;69.49414;935.4542;;;;
2023/01/07 15:46:50;;;;;;;23.9;14.1;;;;;;;6.61;69.81738;935.4844;;;;
2023/01/07 15:49:16;;;;;;;23.8;12.5;;;;;;;6.38;70.24414;935.4796;;;;
2023/01/07 15:51:44;;;;;;;24.2;14.6;;;;;;;6.32;70.76563;935.5668;;;;
2023/01/07 15:54:09;;;;;;;22.1;12.9;;;;;;;6.15;71.12305;935.6026;;;;
2023/01/07 15:56:36;;;;;;;20;12.8;;;;;;;6.08;71.08789;935.5789;;;;
2023/01/07 15:59:01;;;;;;;20.6;12;;;;;;;5.98;71.44434;935.5464;;;;
2023/01/07 16:01:26;;;;;;;20;11.9;;;;;;;5.94;71.32422;935.6411;;;;